createdAt,value
2016-06-08T00:00:29.964Z,0
2016-06-08T00:01:16.406Z,0
2016-06-08T00:02:30.001Z,0
2016-06-08T00:03:17.113Z,0
2016-06-08T00:04:17.038Z,0
2016-06-08T00:05:16.900Z,0
2016-06-08T00:06:20.903Z,0
2016-06-08T00:07:16.358Z,0
2016-06-08T00:08:16.377Z,0
2016-06-08T00:09:16.567Z,0
2016-06-08T00:10:15.897Z,0
2016-06-08T00:11:17.447Z,0
2016-06-08T00:12:16.965Z,0
2016-06-08T00:13:16.499Z,0
2016-06-08T00:14:16.455Z,0
2016-06-08T00:15:16.255Z,0
2016-06-08T00:16:16.399Z,0
2016-06-08T00:17:15.963Z,0
2016-06-08T00:18:16.654Z,0
2016-06-08T00:19:16.437Z,0
2016-06-08T00:20:16.737Z,0
2016-06-08T00:21:16.318Z,0
2016-06-08T00:22:16.899Z,0
2016-06-08T00:23:16.292Z,0
2016-06-08T00:24:16.669Z,0
2016-06-08T00:25:16.298Z,0
2016-06-08T00:26:16.394Z,0
2016-06-08T00:27:16.928Z,0
2016-06-08T00:28:16.055Z,0
2016-06-08T00:29:16.464Z,0
2016-06-08T00:30:16.389Z,0
2016-06-08T00:31:15.889Z,0
2016-06-08T00:32:16.364Z,0
2016-06-08T00:33:16.303Z,0
2016-06-08T00:34:15.834Z,0
2016-06-08T00:35:15.634Z,0
2016-06-08T00:36:16.608Z,0
2016-06-08T00:37:29.486Z,0
2016-06-08T00:38:15.377Z,0
2016-06-08T00:39:15.847Z,0
2016-06-08T00:40:15.773Z,0
2016-06-08T00:41:15.900Z,0
2016-06-08T00:42:17.000Z,0
2016-06-08T00:43:15.594Z,0
2016-06-08T00:44:15.690Z,0
2016-06-08T00:45:14.989Z,0
2016-06-08T00:46:14.835Z,0
2016-06-08T00:47:14.963Z,0
2016-06-08T00:48:15.138Z,0
2016-06-08T00:49:14.985Z,0
2016-06-08T00:50:15.909Z,0
2016-06-08T00:51:16.193Z,0
2016-06-08T00:52:16.273Z,0
2016-06-08T00:53:15.979Z,0
2016-06-08T00:54:30.344Z,0
2016-06-08T00:55:15.344Z,0
2016-06-08T00:56:16.316Z,0
2016-06-08T00:57:16.978Z,0
2016-06-08T00:58:15.321Z,0
2016-06-08T00:59:15.043Z,0
2016-06-08T01:00:15.639Z,0
2016-06-08T01:01:16.220Z,0
2016-06-08T01:02:15.378Z,0
2016-06-08T01:03:15.162Z,0
2016-06-08T01:04:15.165Z,0
2016-06-08T01:05:15.090Z,0
2016-06-08T01:06:15.092Z,0
2016-06-08T01:07:14.923Z,0
2016-06-08T01:08:14.738Z,0
2016-06-08T01:09:14.694Z,0
2016-06-08T01:10:14.978Z,0
2016-06-08T01:11:15.808Z,0
2016-06-08T01:12:15.953Z,0
2016-06-08T01:13:14.783Z,0
2016-06-08T01:14:15.161Z,0
2016-06-08T01:15:14.539Z,0
2016-06-08T01:16:14.776Z,0
2016-06-08T01:17:28.421Z,0
2016-06-08T01:18:15.874Z,0
2016-06-08T01:19:15.455Z,0
2016-06-08T01:20:14.693Z,0
2016-06-08T01:21:14.899Z,0
2016-06-08T01:22:14.745Z,0
2016-06-08T01:23:14.810Z,0
2016-06-08T01:24:15.985Z,0
2016-06-08T01:25:14.768Z,0
2016-06-08T01:26:29.555Z,0
2016-06-08T01:27:15.398Z,0
2016-06-08T01:28:14.262Z,0
2016-06-08T01:29:15.061Z,0
2016-06-08T01:30:14.235Z,0
2016-06-08T01:31:23.803Z,0
2016-06-08T01:32:15.006Z,0
2016-06-08T01:33:14.353Z,0
2016-06-08T01:34:14.183Z,0
2016-06-08T01:35:14.873Z,0
2016-06-08T01:36:14.251Z,0
2016-06-08T01:37:14.395Z,0
2016-06-08T01:38:14.053Z,0
2016-06-08T01:39:14.838Z,0
2016-06-08T01:40:13.949Z,0
2016-06-08T01:41:14.218Z,0
2016-06-08T01:42:14.580Z,0
2016-06-08T01:43:13.832Z,0
2016-06-08T01:44:13.805Z,0
2016-06-08T01:45:13.775Z,0
2016-06-08T01:46:13.653Z,0
2016-06-08T01:47:14.094Z,0
2016-06-08T01:48:13.783Z,0
2016-06-08T01:49:13.677Z,0
2016-06-08T01:50:13.695Z,0
2016-06-08T01:51:13.666Z,0
2016-06-08T01:52:13.638Z,0
2016-06-08T01:53:13.922Z,0
2016-06-08T01:54:13.643Z,0
2016-06-08T01:55:13.615Z,0
2016-06-08T01:56:14.086Z,0
2016-06-08T01:57:13.839Z,0
2016-06-08T01:58:13.560Z,0
2016-06-08T01:59:13.782Z,0
2016-06-08T02:00:13.535Z,0
2016-06-08T02:01:13.506Z,0
2016-06-08T02:02:13.525Z,0
2016-06-08T02:03:13.496Z,0
2016-06-08T02:04:13.436Z,0
2016-06-08T02:05:13.673Z,0
2016-06-08T02:06:13.363Z,0
2016-06-08T02:07:13.350Z,0
2016-06-08T02:08:13.337Z,0
2016-06-08T02:09:13.356Z,0
2016-06-08T02:10:13.311Z,0
2016-06-08T02:11:13.564Z,0
2016-06-08T02:12:14.066Z,0
2016-06-08T02:13:13.242Z,0
2016-06-08T02:14:13.213Z,0
2016-06-08T02:15:13.169Z,0
2016-06-08T02:16:13.234Z,0
2016-06-08T02:17:13.440Z,0
2016-06-08T02:18:13.146Z,0
2016-06-08T02:19:13.289Z,0
2016-06-08T02:20:13.073Z,0
2016-06-08T02:21:13.076Z,0
2016-06-08T02:22:13.109Z,0
2016-06-08T02:23:13.409Z,0
2016-06-08T02:24:12.990Z,0
2016-06-08T02:25:12.993Z,0
2016-06-08T02:26:12.964Z,0
2016-06-08T02:27:13.232Z,0
2016-06-08T02:28:14.078Z,0
2016-06-08T02:29:13.222Z,0
2016-06-08T02:30:12.943Z,0
2016-06-08T02:31:13.086Z,0
2016-06-08T02:32:12.793Z,0
2016-06-08T02:33:12.826Z,0
2016-06-08T02:34:12.782Z,0
2016-06-08T02:35:13.082Z,0
2016-06-08T02:36:12.803Z,0
2016-06-08T02:37:12.587Z,0
2016-06-08T02:38:12.700Z,0
2016-06-08T02:39:12.545Z,0
2016-06-08T02:40:12.783Z,0
2016-06-08T02:41:12.942Z,0
2016-06-08T02:42:13.835Z,0
2016-06-08T02:43:12.650Z,0
2016-06-08T02:44:12.668Z,4
2016-06-08T02:45:12.655Z,0
2016-06-08T02:46:12.565Z,0
2016-06-08T02:47:12.801Z,0
2016-06-08T02:48:12.477Z,0
2016-06-08T02:49:12.807Z,4
2016-06-08T02:50:12.872Z,0
2016-06-08T02:51:12.422Z,0
2016-06-08T02:52:12.424Z,4
2016-06-08T02:53:12.505Z,0
2016-06-08T02:54:12.430Z,4
2016-06-08T02:55:12.401Z,4
2016-06-08T02:56:12.341Z,4
2016-06-08T02:57:13.626Z,4
2016-06-08T02:58:12.331Z,4
2016-06-08T02:59:12.568Z,8
2016-06-08T03:00:12.242Z,8
2016-06-08T03:01:12.558Z,8
2016-06-08T03:02:15.265Z,4
2016-06-08T03:03:12.172Z,8
2016-06-08T03:04:12.176Z,8
2016-06-08T03:05:12.444Z,8
2016-06-08T03:06:12.087Z,8
2016-06-08T03:07:12.106Z,12
2016-06-08T03:08:12.077Z,12
2016-06-08T03:09:12.439Z,12
2016-06-08T03:10:12.036Z,16
2016-06-08T03:11:12.319Z,16
2016-06-08T03:12:12.025Z,16
2016-06-08T03:13:12.528Z,20
2016-06-08T03:14:11.952Z,20
2016-06-08T03:15:11.767Z,20
2016-06-08T03:16:11.926Z,20
2016-06-08T03:17:12.179Z,24
2016-06-08T03:18:11.886Z,28
2016-06-08T03:19:11.747Z,28
2016-06-08T03:20:11.672Z,32
2016-06-08T03:21:11.799Z,32
2016-06-08T03:22:11.786Z,36
2016-06-08T03:23:12.070Z,36
2016-06-08T03:24:11.791Z,40
2016-06-08T03:25:11.779Z,44
2016-06-08T03:26:11.688Z,44
2016-06-08T03:27:11.535Z,48
2016-06-08T03:28:11.662Z,52
2016-06-08T03:29:12.415Z,52
2016-06-08T03:30:11.636Z,56
2016-06-08T03:31:11.639Z,56
2016-06-08T03:32:11.437Z,60
2016-06-08T03:33:11.565Z,64
2016-06-08T03:34:11.382Z,68
2016-06-08T03:35:11.853Z,72
2016-06-08T03:36:11.512Z,76
2016-06-08T03:37:11.576Z,80
2016-06-08T03:38:11.454Z,80
2016-06-08T03:39:11.426Z,88
2016-06-08T03:40:11.397Z,88
2016-06-08T03:41:11.572Z,92
2016-06-08T03:42:11.919Z,96
2016-06-08T03:43:11.750Z,100
2016-06-08T03:44:11.330Z,104
2016-06-08T03:45:11.333Z,108
2016-06-08T03:46:11.367Z,112
2016-06-08T03:47:11.603Z,112
2016-06-08T03:48:11.246Z,120
2016-06-08T03:49:11.266Z,124
2016-06-08T03:50:11.252Z,128
2016-06-08T03:51:11.224Z,128
2016-06-08T03:52:11.210Z,132
2016-06-08T03:53:11.494Z,140
2016-06-08T03:54:10.982Z,144
2016-06-08T03:55:11.172Z,144
2016-06-08T03:56:11.174Z,148
2016-06-08T03:57:11.443Z,152
2016-06-08T03:58:11.226Z,156
2016-06-08T03:59:11.152Z,156
2016-06-08T04:00:10.999Z,160
2016-06-08T04:01:10.985Z,164
2016-06-08T04:02:10.956Z,168
2016-06-08T04:03:10.943Z,168
2016-06-08T04:04:10.931Z,172
2016-06-08T04:05:11.198Z,176
2016-06-08T04:06:10.889Z,180
2016-06-08T04:07:10.845Z,180
2016-06-08T04:08:11.176Z,184
2016-06-08T04:09:11.178Z,188
2016-06-08T04:10:10.790Z,196
2016-06-08T04:11:11.090Z,196
2016-06-08T04:12:10.811Z,200
2016-06-08T04:13:11.377Z,208
2016-06-08T04:14:10.675Z,212
2016-06-08T04:15:10.695Z,216
2016-06-08T04:16:10.698Z,220
2016-06-08T04:17:10.950Z,228
2016-06-08T04:18:10.608Z,232
2016-06-08T04:19:10.580Z,236
2016-06-08T04:20:10.614Z,244
2016-06-08T04:21:10.569Z,248
2016-06-08T04:22:10.557Z,248
2016-06-08T04:23:10.825Z,252
2016-06-08T04:24:10.391Z,260
2016-06-08T04:25:10.346Z,264
2016-06-08T04:26:10.505Z,268
2016-06-08T04:27:11.508Z,276
2016-06-08T04:28:10.745Z,276
2016-06-08T04:29:10.685Z,280
2016-06-08T04:30:10.359Z,288
2016-06-08T04:31:10.426Z,288
2016-06-08T04:32:10.335Z,292
2016-06-08T04:33:10.321Z,292
2016-06-08T04:34:10.324Z,296
2016-06-08T04:35:10.607Z,300
2016-06-08T04:36:10.251Z,300
2016-06-08T04:37:10.222Z,308
2016-06-08T04:38:10.209Z,312
2016-06-08T04:39:10.197Z,324
2016-06-08T04:40:10.153Z,332
2016-06-08T04:41:10.467Z,336
2016-06-08T04:42:10.626Z,336
2016-06-08T04:43:10.395Z,340
2016-06-08T04:44:10.085Z,344
2016-06-08T04:45:10.056Z,344
2016-06-08T04:46:10.574Z,348
2016-06-08T04:47:10.375Z,352
2016-06-08T04:48:09.909Z,356
2016-06-08T04:49:09.974Z,360
2016-06-08T04:50:10.085Z,364
2016-06-08T04:51:09.932Z,360
2016-06-08T04:52:09.950Z,360
2016-06-08T04:53:10.202Z,364
2016-06-08T04:54:09.878Z,372
2016-06-08T04:55:09.849Z,384
2016-06-08T04:56:09.852Z,400
2016-06-08T04:57:09.791Z,408
2016-06-08T04:58:11.029Z,412
2016-06-08T04:59:10.094Z,408
2016-06-08T05:00:09.784Z,416
2016-06-08T05:01:09.724Z,416
2016-06-08T05:02:09.742Z,424
2016-06-08T05:03:10.011Z,424
2016-06-08T05:04:09.671Z,420
2016-06-08T05:05:10.032Z,428
2016-06-08T05:06:09.629Z,424
2016-06-08T05:07:09.618Z,432
2016-06-08T05:08:09.616Z,444
2016-06-08T05:09:09.442Z,440
2016-06-08T05:10:09.642Z,440
2016-06-08T05:11:09.874Z,444
2016-06-08T05:12:09.603Z,448
2016-06-08T05:13:09.595Z,452
2016-06-08T05:14:09.522Z,452
2016-06-08T05:15:09.373Z,464
2016-06-08T05:16:09.551Z,468
2016-06-08T05:17:09.760Z,468
2016-06-08T05:18:09.327Z,460
2016-06-08T05:19:09.503Z,460
2016-06-08T05:20:09.413Z,476
2016-06-08T05:21:09.479Z,484
2016-06-08T05:22:09.374Z,484
2016-06-08T05:23:09.532Z,484
2016-06-08T05:24:09.364Z,488
2016-06-08T05:25:09.320Z,488
2016-06-08T05:26:09.370Z,492
2016-06-08T05:27:09.311Z,472
2016-06-08T05:28:09.126Z,456
2016-06-08T05:29:09.286Z,448
2016-06-08T05:30:09.226Z,456
2016-06-08T05:31:09.213Z,460
2016-06-08T05:32:09.420Z,472
2016-06-08T05:33:09.204Z,492
2016-06-08T05:34:09.035Z,512
2016-06-08T05:35:09.287Z,520
2016-06-08T05:36:09.134Z,524
2016-06-08T05:37:09.089Z,548
2016-06-08T05:38:22.983Z,572
2016-06-08T05:39:08.845Z,580
2016-06-08T05:40:09.019Z,588
2016-06-08T05:41:09.241Z,596
2016-06-08T05:42:09.087Z,608
2016-06-08T05:43:09.934Z,620
2016-06-08T05:44:09.623Z,628
2016-06-08T05:45:10.189Z,624
2016-06-08T05:46:09.020Z,636
2016-06-08T05:47:09.461Z,656
2016-06-08T05:48:09.619Z,668
2016-06-08T05:49:08.997Z,672
2016-06-08T05:50:08.922Z,668
2016-06-08T05:51:09.002Z,676
2016-06-08T05:52:08.942Z,684
2016-06-08T05:53:09.258Z,684
2016-06-08T05:54:08.979Z,680
2016-06-08T05:55:08.903Z,684
2016-06-08T05:56:08.952Z,688
2016-06-08T05:57:08.894Z,696
2016-06-08T05:58:23.411Z,684
2016-06-08T05:59:25.323Z,664
2016-06-08T06:00:13.807Z,664
2016-06-08T06:01:10.404Z,680
2016-06-08T06:02:24.579Z,676
2016-06-08T06:03:22.440Z,688
2016-06-08T06:04:23.974Z,712
2016-06-08T06:05:24.461Z,740
2016-06-08T06:06:38.468Z,748
2016-06-08T06:07:29.220Z,764
2016-06-08T06:08:22.345Z,776
2016-06-08T06:09:22.331Z,776
2016-06-08T06:10:22.303Z,764
2016-06-08T06:11:22.556Z,768
2016-06-08T06:12:22.230Z,772
2016-06-08T06:13:22.639Z,784
2016-06-08T06:14:22.283Z,784
2016-06-08T06:15:22.192Z,792
2016-06-08T06:16:22.164Z,796
2016-06-08T06:17:09.931Z,800
2016-06-08T06:18:22.122Z,784
2016-06-08T06:19:22.202Z,764
2016-06-08T06:20:11.330Z,784
2016-06-08T06:21:11.223Z,804
2016-06-08T06:22:11.335Z,812
2016-06-08T06:23:11.635Z,800
2016-06-08T06:24:11.325Z,768
2016-06-08T06:25:11.078Z,828
2016-06-08T06:26:11.111Z,832
2016-06-08T06:27:08.864Z,840
2016-06-08T06:28:08.992Z,848
2016-06-08T06:29:08.854Z,844
2016-06-08T06:30:08.716Z,812
2016-06-08T06:31:08.999Z,828
2016-06-08T06:32:08.909Z,832
2016-06-08T06:33:08.928Z,808
2016-06-08T06:34:08.102Z,796
2016-06-08T06:35:08.260Z,780
2016-06-08T06:36:09.155Z,748
2016-06-08T06:37:07.970Z,768
2016-06-08T06:38:07.957Z,776
2016-06-08T06:39:07.943Z,764
2016-06-08T06:40:08.024Z,772
2016-06-08T06:41:08.262Z,764
2016-06-08T06:42:07.967Z,768
2016-06-08T06:43:07.986Z,772
2016-06-08T06:44:07.864Z,776
2016-06-08T06:45:07.882Z,780
2016-06-08T06:46:07.900Z,784
2016-06-08T06:47:08.122Z,792
2016-06-08T06:48:07.812Z,796
2016-06-08T06:49:07.845Z,804
2016-06-08T06:50:07.801Z,820
2016-06-08T06:51:07.757Z,840
2016-06-08T06:52:08.322Z,848
2016-06-08T06:53:08.263Z,848
2016-06-08T06:54:07.672Z,852
2016-06-08T06:55:07.722Z,860
2016-06-08T06:57:07.852Z,852
2016-06-08T06:58:08.494Z,852
2016-06-08T06:59:08.091Z,848
2016-06-08T07:00:07.860Z,856
2016-06-08T07:01:08.752Z,856
2016-06-08T07:02:08.802Z,856
2016-06-08T07:03:07.836Z,856
2016-06-08T07:04:08.183Z,856
2016-06-08T07:05:08.374Z,868
2016-06-08T07:06:07.672Z,872
2016-06-08T07:07:07.894Z,868
2016-06-08T07:08:07.913Z,872
2016-06-08T07:09:08.040Z,884
2016-06-08T07:10:08.074Z,888
2016-06-08T07:11:08.248Z,892
2016-06-08T07:12:07.220Z,892
2016-06-08T07:13:07.785Z,900
2016-06-08T07:14:08.412Z,908
2016-06-08T07:15:06.978Z,904
2016-06-08T07:16:06.949Z,900
2016-06-08T07:17:07.233Z,888
2016-06-08T07:18:07.065Z,892
2016-06-08T07:19:07.306Z,884
2016-06-08T07:20:06.996Z,888
2016-06-08T07:21:06.998Z,880
2016-06-08T07:22:06.877Z,880
2016-06-08T07:23:07.235Z,872
2016-06-08T07:24:07.001Z,872
2016-06-08T07:25:06.920Z,876
2016-06-08T07:26:06.984Z,872
2016-06-08T07:27:06.769Z,860
2016-06-08T07:28:07.693Z,860
2016-06-08T07:29:07.290Z,868
2016-06-08T07:30:10.980Z,864
2016-06-08T07:31:06.795Z,856
2016-06-08T07:32:06.797Z,860
2016-06-08T07:33:10.831Z,868
2016-06-08T07:34:08.569Z,880
2016-06-08T07:35:08.031Z,876
2016-06-08T07:36:07.111Z,876
2016-06-08T07:37:07.520Z,892
2016-06-08T07:38:07.633Z,888
2016-06-08T07:39:06.745Z,880
2016-06-08T07:40:06.856Z,876
2016-06-08T07:41:06.942Z,888
2016-06-08T07:42:06.633Z,904
2016-06-08T07:43:06.463Z,900
2016-06-08T07:44:07.232Z,916
2016-06-08T07:45:06.922Z,920
2016-06-08T07:46:06.346Z,912
2016-06-08T07:47:06.786Z,920
2016-06-08T07:48:23.695Z,908
2016-06-08T07:49:06.120Z,904
2016-06-08T07:50:06.529Z,888
2016-06-08T07:51:06.418Z,888
2016-06-08T07:52:06.482Z,884
2016-06-08T07:53:06.657Z,888
2016-06-08T07:54:06.363Z,904
2016-06-08T07:55:06.490Z,900
2016-06-08T07:56:06.386Z,904
2016-06-08T07:57:06.373Z,924
2016-06-08T07:58:06.766Z,940
2016-06-08T07:59:06.534Z,956
2016-06-08T08:00:06.240Z,952
2016-06-08T08:01:06.586Z,956
2016-06-08T08:02:06.167Z,964
2016-06-08T08:03:06.592Z,960
2016-06-08T08:04:06.267Z,964
2016-06-08T08:05:06.535Z,976
2016-06-08T08:06:06.163Z,980
2016-06-08T08:07:06.119Z,976
2016-06-08T08:08:06.106Z,992
2016-06-08T08:09:06.265Z,1000
2016-06-08T08:10:06.220Z,1012
2016-06-08T08:11:06.133Z,1028
2016-06-08T08:12:06.166Z,1044
2016-06-08T08:13:07.763Z,1044
2016-06-08T08:14:06.500Z,1040
2016-06-08T08:15:05.994Z,1048
2016-06-08T08:16:06.028Z,1056
2016-06-08T08:17:06.390Z,1048
2016-06-08T08:18:07.190Z,1056
2016-06-08T08:19:06.974Z,1068
2016-06-08T08:20:06.618Z,1072
2016-06-08T08:21:06.370Z,1076
2016-06-08T08:22:05.998Z,1092
2016-06-08T08:23:06.328Z,1100
2016-06-08T08:24:05.879Z,1108
2016-06-08T08:25:06.085Z,1104
2016-06-08T08:26:05.898Z,1116
2016-06-08T08:27:05.980Z,1116
2016-06-08T08:28:06.842Z,1124
2016-06-08T08:29:06.282Z,1148
2016-06-08T08:30:06.176Z,1168
2016-06-08T08:31:05.740Z,1180
2016-06-08T08:32:05.962Z,1180
2016-06-08T08:33:05.839Z,1196
2016-06-08T08:34:05.764Z,1200
2016-06-08T08:35:06.079Z,1208
2016-06-08T08:36:05.785Z,1228
2016-06-08T08:37:05.834Z,1240
2016-06-08T08:38:19.384Z,1236
2016-06-08T08:39:19.356Z,1248
2016-06-08T08:40:19.328Z,1260
2016-06-08T08:41:19.627Z,1264
2016-06-08T08:42:19.364Z,1272
2016-06-08T08:43:19.336Z,1268
2016-06-08T08:44:19.308Z,1268
2016-06-08T08:45:05.919Z,1260
2016-06-08T08:46:19.219Z,1268
2016-06-08T08:47:19.502Z,1272
2016-06-08T08:48:19.333Z,1264
2016-06-08T08:49:18.991Z,1268
2016-06-08T08:50:19.151Z,1276
2016-06-08T08:51:19.154Z,1284
2016-06-08T08:52:19.109Z,1284
2016-06-08T08:53:05.877Z,1284
2016-06-08T08:54:19.193Z,1264
2016-06-08T08:55:19.054Z,1276
2016-06-08T08:56:19.401Z,1276
2016-06-08T08:57:19.076Z,1288
2016-06-08T08:58:19.548Z,1288
2016-06-08T08:59:20.254Z,1288
2016-06-08T09:00:08.257Z,1296
2016-06-08T09:01:19.195Z,1296
2016-06-08T09:02:06.637Z,1288
2016-06-08T09:03:19.124Z,1252
2016-06-08T09:04:07.939Z,1232
2016-06-08T09:05:08.379Z,1208
2016-06-08T09:06:08.178Z,1208
2016-06-08T09:07:14.134Z,1184
2016-06-08T09:08:05.497Z,1180
2016-06-08T09:09:05.874Z,1188
2016-06-08T09:10:05.423Z,1188
2016-06-08T09:11:06.239Z,1204
2016-06-08T09:12:05.835Z,1220
2016-06-08T09:13:05.853Z,1224
2016-06-08T09:14:06.466Z,1248
2016-06-08T09:15:05.219Z,1256
2016-06-08T09:16:05.268Z,1264
2016-06-08T09:17:05.380Z,1268
2016-06-08T09:18:05.867Z,1280
2016-06-08T09:19:04.869Z,1276
2016-06-08T09:20:04.966Z,1272
2016-06-08T09:21:04.719Z,1268
2016-06-08T09:22:04.816Z,1228
2016-06-08T09:23:05.130Z,1220
2016-06-08T09:24:04.836Z,1216
2016-06-08T09:25:05.010Z,1216
2016-06-08T09:26:04.748Z,1204
2016-06-08T09:27:04.782Z,1200
2016-06-08T09:28:04.801Z,1192
2016-06-08T09:29:19.803Z,1200
2016-06-08T09:30:05.070Z,1184
2016-06-08T09:31:04.715Z,1180
2016-06-08T09:32:04.967Z,1168
2016-06-08T09:33:04.704Z,1144
2016-06-08T09:34:04.691Z,1132
2016-06-08T09:35:04.787Z,1084
2016-06-08T09:36:04.728Z,1040
2016-06-08T09:37:05.308Z,1048
2016-06-08T09:38:05.248Z,1068
2016-06-08T09:39:04.845Z,1060
2016-06-08T09:40:05.114Z,1064
2016-06-08T09:41:05.601Z,1076
2016-06-08T09:42:04.713Z,1076
2016-06-08T09:43:04.841Z,1084
2016-06-08T09:44:05.203Z,1108
2016-06-08T09:45:05.425Z,1132
2016-06-08T09:46:04.599Z,1128
2016-06-08T09:47:05.242Z,1120
2016-06-08T09:48:04.854Z,1156
2016-06-08T09:49:04.857Z,1152
2016-06-08T09:50:05.000Z,1140
2016-06-08T09:51:04.768Z,1120
2016-06-08T09:52:05.068Z,1076
2016-06-08T09:53:05.320Z,1036
2016-06-08T09:54:04.855Z,1040
2016-06-08T09:55:04.857Z,1080
2016-06-08T09:56:05.579Z,1064
2016-06-08T09:57:04.831Z,1024
2016-06-08T09:58:03.834Z,1000
2016-06-08T09:59:04.165Z,1020
2016-06-08T10:00:05.839Z,1032
2016-06-08T10:01:03.951Z,984
2016-06-08T10:02:03.767Z,1096
2016-06-08T10:03:04.051Z,1136
2016-06-08T10:04:11.240Z,1172
2016-06-08T10:05:07.290Z,1176
2016-06-08T10:06:03.840Z,1180
2016-06-08T10:07:03.859Z,1184
2016-06-08T10:08:03.940Z,1172
2016-06-08T10:09:05.019Z,1188
2016-06-08T10:10:03.804Z,1196
2016-06-08T10:11:04.134Z,1200
2016-06-08T10:12:03.794Z,1204
2016-06-08T10:13:03.812Z,1224
2016-06-08T10:14:05.424Z,1228
2016-06-08T10:15:04.552Z,1244
2016-06-08T10:16:03.851Z,1232
2016-06-08T10:17:04.073Z,1232
2016-06-08T10:18:03.669Z,1260
2016-06-08T10:19:03.624Z,1260
2016-06-08T10:20:04.049Z,1268
2016-06-08T10:21:03.693Z,1296
2016-06-08T10:22:03.602Z,1296
2016-06-08T10:23:03.869Z,1292
2016-06-08T10:24:03.841Z,1324
2016-06-08T10:25:03.640Z,1328
2016-06-08T10:26:05.081Z,1356
2016-06-08T10:27:03.755Z,1356
2016-06-08T10:28:03.821Z,1364
2016-06-08T10:29:04.199Z,1380
2016-06-08T10:30:04.217Z,1372
2016-06-08T10:31:03.579Z,1440
2016-06-08T10:32:03.940Z,1540
2016-06-08T10:33:03.507Z,1676
2016-06-08T10:34:03.665Z,1888
2016-06-08T10:35:03.965Z,1572
2016-06-08T10:36:04.576Z,1648
2016-06-08T10:37:04.173Z,1740
2016-06-08T10:38:04.082Z,1980
2016-06-08T10:39:05.132Z,1856
2016-06-08T10:40:04.212Z,1748
2016-06-08T10:41:03.965Z,1412
2016-06-08T10:42:03.750Z,1644
2016-06-08T10:43:07.330Z,1680
2016-06-08T10:44:05.723Z,1704
2016-06-08T10:45:09.367Z,1612
2016-06-08T10:46:03.572Z,1768
2016-06-08T10:47:03.263Z,1876
2016-06-08T10:48:03.202Z,1992
2016-06-08T10:49:17.252Z,1820
2016-06-08T10:50:03.724Z,1360
2016-06-08T10:51:18.102Z,1360
2016-06-08T10:52:04.166Z,1420
2016-06-08T10:53:07.529Z,1540
2016-06-08T10:54:03.610Z,1520
2016-06-08T10:55:03.956Z,1564
2016-06-08T10:56:03.802Z,1584
2016-06-08T10:58:04.604Z,1676
2016-06-08T10:59:22.513Z,1648
2016-06-08T11:00:14.141Z,1668
2016-06-08T11:01:04.597Z,1704
2016-06-08T11:02:10.741Z,1792
2016-06-08T11:04:17.449Z,1992
2016-06-08T11:05:03.545Z,2008
2016-06-08T11:06:04.923Z,2168
2016-06-08T11:07:03.598Z,2432
2016-06-08T11:08:04.023Z,2208
2016-06-08T11:09:03.384Z,1864
2016-06-08T11:10:04.825Z,1856
2016-06-08T11:11:03.608Z,2232
2016-06-08T11:12:17.501Z,2452
2016-06-08T11:13:04.004Z,2624
2016-06-08T11:14:10.366Z,3220
2016-06-08T11:15:17.134Z,2768
2016-06-08T11:16:09.653Z,2260
2016-06-08T11:17:03.499Z,2432
2016-06-08T11:18:16.533Z,2988
2016-06-08T11:19:02.817Z,2856
2016-06-08T11:20:03.038Z,2916
2016-06-08T11:21:02.980Z,2992
2016-06-08T11:22:04.842Z,2920
2016-06-08T11:23:03.124Z,2760
2016-06-08T11:24:03.941Z,2668
2016-06-08T11:25:04.068Z,2696
2016-06-08T11:26:04.383Z,2800
2016-06-08T11:27:02.933Z,2184
2016-06-08T11:28:16.607Z,1984
2016-06-08T11:29:03.157Z,2044
2016-06-08T11:30:16.222Z,2540
2016-06-08T11:31:16.599Z,2824
2016-06-08T11:32:03.290Z,2796
2016-06-08T11:33:03.371Z,2920
2016-06-08T11:34:16.514Z,2884
2016-06-08T11:35:16.173Z,2960
2016-06-08T11:36:16.457Z,3408
2016-06-08T11:37:16.365Z,3548
2016-06-08T11:38:16.821Z,3148
2016-06-08T11:39:16.261Z,3080
2016-06-08T11:40:03.233Z,3172
2016-06-08T11:41:19.830Z,3048
2016-06-08T11:42:17.317Z,2624
2016-06-08T11:43:03.960Z,2456
2016-06-08T11:44:04.884Z,2692
2016-06-08T11:45:16.731Z,2928
2016-06-08T11:46:16.500Z,3092
2016-06-08T11:47:03.565Z,3172
2016-06-08T11:48:05.177Z,3040
2016-06-08T11:49:02.789Z,3080
2016-06-08T11:50:02.119Z,3144
2016-06-08T11:51:16.013Z,3428
2016-06-08T11:52:05.375Z,3532
2016-06-08T11:54:02.552Z,3312
2016-06-08T11:55:01.899Z,3540
2016-06-08T11:56:02.651Z,2572
2016-06-08T11:57:01.889Z,4496
2016-06-08T11:58:05.469Z,2164
2016-06-08T11:59:02.596Z,2040
2016-06-08T12:00:05.693Z,1876
2016-06-08T12:01:16.196Z,1884
2016-06-08T12:02:03.370Z,2172
2016-06-08T12:03:22.014Z,2504
2016-06-08T12:04:02.204Z,3172
2016-06-08T12:05:01.784Z,3540
2016-06-08T12:06:01.741Z,3044
2016-06-08T12:07:01.853Z,2492
2016-06-08T12:08:16.371Z,3680
2016-06-08T12:09:01.812Z,3744
2016-06-08T12:10:02.251Z,3652
2016-06-08T12:11:16.332Z,4400
2016-06-08T12:12:02.476Z,4892
2016-06-08T12:13:05.322Z,10008
2016-06-08T12:14:02.778Z,11780
2016-06-08T12:15:02.671Z,9972
2016-06-08T12:16:03.611Z,10520
2016-06-08T12:17:01.692Z,8664
2016-06-08T12:18:02.742Z,9660
2016-06-08T12:19:01.931Z,13936
2016-06-08T12:20:01.856Z,10224
2016-06-08T12:21:15.483Z,4552
2016-06-08T12:22:02.158Z,3936
2016-06-08T12:23:02.802Z,3636
2016-06-08T12:24:01.711Z,3460
2016-06-08T12:25:05.401Z,3364
2016-06-08T12:26:01.935Z,3436
2016-06-08T12:27:01.782Z,3520
2016-06-08T12:28:02.081Z,3204
2016-06-08T12:29:02.631Z,3128
2016-06-08T12:30:01.836Z,3424
2016-06-08T12:31:02.042Z,4392
2016-06-08T12:32:01.702Z,3468
2016-06-08T12:33:01.954Z,3288
2016-06-08T12:34:01.254Z,3844
2016-06-08T12:35:01.881Z,3880
2016-06-08T12:36:02.102Z,4288
2016-06-08T12:37:01.934Z,4088
2016-06-08T12:38:01.842Z,5048
2016-06-08T12:39:02.532Z,3988
2016-06-08T12:40:03.676Z,4380
2016-06-08T12:41:01.897Z,5064
2016-06-08T12:42:01.837Z,4496
2016-06-08T12:43:01.825Z,5660
2016-06-08T12:44:01.921Z,3664
2016-06-08T12:45:02.548Z,5156
2016-06-08T12:46:02.223Z,3760
2016-06-08T12:47:01.820Z,3664
2016-06-08T12:48:02.056Z,3772
2016-06-08T12:49:01.653Z,3960
2016-06-08T12:50:05.375Z,9916
2016-06-08T12:51:01.689Z,17888
2016-06-08T12:52:01.317Z,17952
2016-06-08T12:53:00.961Z,28096
2016-06-08T12:54:01.854Z,7848
2016-06-08T12:55:01.122Z,6104
2016-06-08T12:56:01.844Z,8504
2016-06-08T12:57:03.174Z,10328
2016-06-08T12:58:01.803Z,14812
2016-06-08T12:59:02.008Z,17696
2016-06-08T13:00:05.589Z,3500
2016-06-08T13:01:19.452Z,3688
2016-06-08T13:02:01.969Z,4768
2016-06-08T13:03:01.941Z,19456
2016-06-08T13:04:01.365Z,5412
2016-06-08T13:05:01.899Z,9152
2016-06-08T13:06:01.683Z,6892
2016-06-08T13:08:01.923Z,5580
2016-06-08T13:09:02.050Z,7884
2016-06-08T13:10:02.568Z,5988
2016-06-08T13:11:00.697Z,6048
2016-06-08T13:12:00.949Z,6408
2016-06-08T13:13:01.780Z,5080
2016-06-08T13:14:00.986Z,5192
2016-06-08T13:15:01.176Z,4944
2016-06-08T13:16:01.289Z,5036
2016-06-08T13:17:00.712Z,5288
2016-06-08T13:18:00.528Z,5764
2016-06-08T13:19:14.530Z,8224
2016-06-08T13:20:00.658Z,7216
2016-06-08T13:21:04.303Z,9940
2016-06-08T13:22:01.883Z,12916
2016-06-08T13:23:00.885Z,13264
2016-06-08T13:24:00.888Z,27264
2016-06-08T13:25:00.422Z,27904
2016-06-08T13:26:00.487Z,21536
2016-06-08T13:27:00.630Z,21440
2016-06-08T13:28:01.914Z,38272
2016-06-08T13:29:14.245Z,48480
2016-06-08T13:30:01.466Z,34240
2016-06-08T13:31:00.594Z,30144
2016-06-08T13:32:00.582Z,24896
2016-06-08T13:33:00.943Z,12116
2016-06-08T13:34:01.071Z,7216
2016-06-08T13:35:00.965Z,6328
2016-06-08T13:36:00.374Z,8440
2016-06-08T13:37:00.985Z,7624
2016-06-08T13:38:00.675Z,7108
2016-06-08T13:39:00.287Z,6456
2016-06-08T13:40:01.104Z,5768
2016-06-08T13:41:04.324Z,5416
2016-06-08T13:42:00.452Z,5520
2016-06-08T13:43:00.267Z,5032
2016-06-08T13:44:00.504Z,4992
2016-06-08T13:45:00.788Z,5100
2016-06-08T13:46:00.823Z,5340
2016-06-08T13:47:14.043Z,6340
2016-06-08T13:48:00.500Z,7024
2016-06-08T13:49:00.768Z,6752
2016-06-08T13:50:00.255Z,5988
2016-06-08T13:51:01.883Z,5624
2016-06-08T13:52:00.385Z,8512